sensor_id;sensor_type;location;lat;lon;timestamp;pressure;altitude;pressure_sealevel;temperature
12918;BMP180;6526;54.312;13.092;2023-08-17T00:00:29;102651.00;;;23.20
12918;BMP180;6526;54.312;13.092;2023-08-17T00:02:55;102648.00;;;23.20
12918;BMP180;6526;54.312;13.092;2023-08-17T00:05:21;102644.00;;;23.20
12918;BMP180;6526;54.312;13.092;2023-08-17T00:07:47;102650.00;;;23.10
12918;BMP180;6526;54.312;13.092;2023-08-17T00:10:13;102663.00;;;23.20
12918;BMP180;6526;54.312;13.092;2023-08-17T00:12:39;102653.00;;;23.20
12918;BMP180;6526;54.312;13.092;2023-08-17T00:15:06;102655.00;;;23.20
12918;BMP180;6526;54.312;13.092;2023-08-17T00:17:32;102660.00;;;23.20
12918;BMP180;6526;54.312;13.092;2023-08-17T00:19:58;102666.00;;;23.20
12918;BMP180;6526;54.312;13.092;2023-08-17T00:22:24;102666.00;;;23.20
12918;BMP180;6526;54.312;13.092;2023-08-17T00:24:50;102666.00;;;23.20
12918;BMP180;6526;54.312;13.092;2023-08-17T00:27:16;102671.00;;;23.20
12918;BMP180;6526;54.312;13.092;2023-08-17T00:29:42;102665.00;;;23.20
12918;BMP180;6526;54.312;13.092;2023-08-17T00:32:08;102667.00;;;23.20
12918;BMP180;6526;54.312;13.092;2023-08-17T00:34:34;102663.00;;;23.10
12918;BMP180;6526;54.312;13.092;2023-08-17T00:37:00;102683.00;;;23.10
12918;BMP180;6526;54.312;13.092;2023-08-17T00:39:26;102677.00;;;23.10
12918;BMP180;6526;54.312;13.092;2023-08-17T00:41:52;102665.00;;;23.10
12918;BMP180;6526;54.312;13.092;2023-08-17T00:44:18;102663.00;;;23.10
12918;BMP180;6526;54.312;13.092;2023-08-17T00:46:44;102661.00;;;23.10
12918;BMP180;6526;54.312;13.092;2023-08-17T00:49:11;102658.00;;;23.00
12918;BMP180;6526;54.312;13.092;2023-08-17T00:51:37;102668.00;;;22.90
12918;BMP180;6526;54.312;13.092;2023-08-17T00:54:05;102667.00;;;22.90
12918;BMP180;6526;54.312;13.092;2023-08-17T00:56:31;102657.00;;;22.80
12918;BMP180;6526;54.312;13.092;2023-08-17T00:58:57;102661.00;;;22.80
12918;BMP180;6526;54.312;13.092;2023-08-17T01:01:23;102663.00;;;22.80
12918;BMP180;6526;54.312;13.092;2023-08-17T01:03:49;102658.00;;;22.80
12918;BMP180;6526;54.312;13.092;2023-08-17T01:06:16;102661.00;;;22.80
12918;BMP180;6526;54.312;13.092;2023-08-17T01:08:43;102647.00;;;22.80
12918;BMP180;6526;54.312;13.092;2023-08-17T01:11:36;102652.00;;;22.90
12918;BMP180;6526;54.312;13.092;2023-08-17T01:19:27;102624.00;;;22.80
12918;BMP180;6526;54.312;13.092;2023-08-17T01:22:00;102635.00;;;22.70
12918;BMP180;6526;54.312;13.092;2023-08-17T01:24:27;102632.00;;;22.80
12918;BMP180;6526;54.312;13.092;2023-08-17T01:26:53;102628.00;;;22.70
12918;BMP180;6526;54.312;13.092;2023-08-17T01:29:19;102635.00;;;22.80
12918;BMP180;6526;54.312;13.092;2023-08-17T01:34:40;102641.00;;;22.80
12918;BMP180;6526;54.312;13.092;2023-08-17T01:37:10;102638.00;;;22.80
12918;BMP180;6526;54.312;13.092;2023-08-17T01:39:43;102628.00;;;22.80
12918;BMP180;6526;54.312;13.092;2023-08-17T01:42:12;102629.00;;;22.80
12918;BMP180;6526;54.312;13.092;2023-08-17T01:44:39;102626.00;;;22.80
12918;BMP180;6526;54.312;13.092;2023-08-17T01:47:05;102630.00;;;22.80
12918;BMP180;6526;54.312;13.092;2023-08-17T01:49:31;102629.00;;;22.80
12918;BMP180;6526;54.312;13.092;2023-08-17T01:51:58;102621.00;;;22.80
12918;BMP180;6526;54.312;13.092;2023-08-17T01:54:24;102604.00;;;22.80
12918;BMP180;6526;54.312;13.092;2023-08-17T01:56:50;102600.00;;;22.70
12918;BMP180;6526;54.312;13.092;2023-08-17T01:59:16;102611.00;;;22.70
12918;BMP180;6526;54.312;13.092;2023-08-17T02:01:42;102620.00;;;22.70
12918;BMP180;6526;54.312;13.092;2023-08-17T02:04:08;102619.00;;;22.60
12918;BMP180;6526;54.312;13.092;2023-08-17T02:06:34;102619.00;;;22.60
12918;BMP180;6526;54.312;13.092;2023-08-17T02:09:00;102630.00;;;22.60
12918;BMP180;6526;54.312;13.092;2023-08-17T02:11:26;102635.00;;;22.60
12918;BMP180;6526;54.312;13.092;2023-08-17T02:13:52;102632.00;;;22.70
12918;BMP180;6526;54.312;13.092;2023-08-17T02:16:19;102646.00;;;22.70
12918;BMP180;6526;54.312;13.092;2023-08-17T02:18:45;102639.00;;;22.70
12918;BMP180;6526;54.312;13.092;2023-08-17T02:21:10;102625.00;;;22.70
12918;BMP180;6526;54.312;13.092;2023-08-17T02:23:36;102626.00;;;22.60
12918;BMP180;6526;54.312;13.092;2023-08-17T02:26:03;102613.00;;;22.50
12918;BMP180;6526;54.312;13.092;2023-08-17T02:28:29;102620.00;;;22.40
12918;BMP180;6526;54.312;13.092;2023-08-17T02:30:59;102617.00;;;22.40
12918;BMP180;6526;54.312;13.092;2023-08-17T02:33:25;102609.00;;;22.40
12918;BMP180;6526;54.312;13.092;2023-08-17T02:35:51;102626.00;;;22.40
12918;BMP180;6526;54.312;13.092;2023-08-17T02:38:18;102617.00;;;22.40
12918;BMP180;6526;54.312;13.092;2023-08-17T02:40:44;102612.00;;;22.40
12918;BMP180;6526;54.312;13.092;2023-08-17T02:43:10;102610.00;;;22.40
12918;BMP180;6526;54.312;13.092;2023-08-17T02:45:36;102621.00;;;22.30
12918;BMP180;6526;54.312;13.092;2023-08-17T02:48:02;102623.00;;;22.30
12918;BMP180;6526;54.312;13.092;2023-08-17T02:50:28;102612.00;;;22.30
12918;BMP180;6526;54.312;13.092;2023-08-17T02:52:54;102622.00;;;22.30
12918;BMP180;6526;54.312;13.092;2023-08-17T02:55:20;102617.00;;;22.30
12918;BMP180;6526;54.312;13.092;2023-08-17T02:57:46;102621.00;;;22.30
12918;BMP180;6526;54.312;13.092;2023-08-17T03:00:13;102612.00;;;22.20
12918;BMP180;6526;54.312;13.092;2023-08-17T03:02:39;102613.00;;;22.20
12918;BMP180;6526;54.312;13.092;2023-08-17T03:05:05;102610.00;;;22.20
12918;BMP180;6526;54.312;13.092;2023-08-17T03:07:31;102621.00;;;22.20
12918;BMP180;6526;54.312;13.092;2023-08-17T03:09:57;102626.00;;;22.20
12918;BMP180;6526;54.312;13.092;2023-08-17T03:12:24;102627.00;;;22.20
12918;BMP180;6526;54.312;13.092;2023-08-17T03:14:50;102639.00;;;22.10
12918;BMP180;6526;54.312;13.092;2023-08-17T03:17:16;102643.00;;;22.10
12918;BMP180;6526;54.312;13.092;2023-08-17T03:19:42;102643.00;;;22.00
12918;BMP180;6526;54.312;13.092;2023-08-17T03:22:08;102649.00;;;22.00
12918;BMP180;6526;54.312;13.092;2023-08-17T03:24:34;102643.00;;;22.00
12918;BMP180;6526;54.312;13.092;2023-08-17T03:27:01;102642.00;;;22.00
12918;BMP180;6526;54.312;13.092;2023-08-17T03:29:27;102642.00;;;22.00
12918;BMP180;6526;54.312;13.092;2023-08-17T03:31:53;102652.00;;;21.90
12918;BMP180;6526;54.312;13.092;2023-08-17T03:34:19;102655.00;;;21.90
12918;BMP180;6526;54.312;13.092;2023-08-17T03:36:45;102662.00;;;21.90
12918;BMP180;6526;54.312;13.092;2023-08-17T03:39:11;102660.00;;;21.90
12918;BMP180;6526;54.312;13.092;2023-08-17T03:41:37;102658.00;;;21.90
12918;BMP180;6526;54.312;13.092;2023-08-17T03:44:04;102645.00;;;21.90
12918;BMP180;6526;54.312;13.092;2023-08-17T03:46:31;102665.00;;;21.90
12918;BMP180;6526;54.312;13.092;2023-08-17T03:48:57;102656.00;;;21.90
12918;BMP180;6526;54.312;13.092;2023-08-17T03:51:24;102656.00;;;21.90
12918;BMP180;6526;54.312;13.092;2023-08-17T03:53:50;102665.00;;;21.90
12918;BMP180;6526;54.312;13.092;2023-08-17T03:56:16;102660.00;;;21.90
12918;BMP180;6526;54.312;13.092;2023-08-17T03:58:42;102658.00;;;21.90
12918;BMP180;6526;54.312;13.092;2023-08-17T04:01:09;102655.00;;;21.90
12918;BMP180;6526;54.312;13.092;2023-08-17T04:03:37;102657.00;;;21.90
12918;BMP180;6526;54.312;13.092;2023-08-17T04:06:06;102653.00;;;21.80
12918;BMP180;6526;54.312;13.092;2023-08-17T04:08:36;102651.00;;;21.70
12918;BMP180;6526;54.312;13.092;2023-08-17T04:11:03;102654.00;;;21.70
12918;BMP180;6526;54.312;13.092;2023-08-17T04:13:29;102660.00;;;21.70
12918;BMP180;6526;54.312;13.092;2023-08-17T04:15:55;102666.00;;;21.80
12918;BMP180;6526;54.312;13.092;2023-08-17T04:18:21;102669.00;;;21.70
12918;BMP180;6526;54.312;13.092;2023-08-17T04:20:47;102671.00;;;21.70
12918;BMP180;6526;54.312;13.092;2023-08-17T04:23:13;102666.00;;;21.70
12918;BMP180;6526;54.312;13.092;2023-08-17T04:25:40;102660.00;;;21.70
12918;BMP180;6526;54.312;13.092;2023-08-17T04:28:06;102675.00;;;21.70
12918;BMP180;6526;54.312;13.092;2023-08-17T04:30:32;102681.00;;;21.70
12918;BMP180;6526;54.312;13.092;2023-08-17T04:32:58;102677.00;;;21.70
12918;BMP180;6526;54.312;13.092;2023-08-17T04:35:24;102684.00;;;21.70
12918;BMP180;6526;54.312;13.092;2023-08-17T04:37:50;102683.00;;;21.70
12918;BMP180;6526;54.312;13.092;2023-08-17T04:40:16;102680.00;;;21.80
12918;BMP180;6526;54.312;13.092;2023-08-17T04:42:42;102682.00;;;21.70
12918;BMP180;6526;54.312;13.092;2023-08-17T04:45:09;102689.00;;;21.80
12918;BMP180;6526;54.312;13.092;2023-08-17T04:47:35;102685.00;;;21.80
12918;BMP180;6526;54.312;13.092;2023-08-17T04:50:01;102692.00;;;21.90
12918;BMP180;6526;54.312;13.092;2023-08-17T04:52:27;102688.00;;;21.80
12918;BMP180;6526;54.312;13.092;2023-08-17T04:54:53;102687.00;;;21.70
12918;BMP180;6526;54.312;13.092;2023-08-17T04:57:19;102693.00;;;21.70
12918;BMP180;6526;54.312;13.092;2023-08-17T04:59:45;102681.00;;;21.60
12918;BMP180;6526;54.312;13.092;2023-08-17T05:02:11;102682.00;;;21.70
12918;BMP180;6526;54.312;13.092;2023-08-17T05:04:37;102678.00;;;21.70
12918;BMP180;6526;54.312;13.092;2023-08-17T05:07:04;102682.00;;;21.80
12918;BMP180;6526;54.312;13.092;2023-08-17T05:09:30;102670.00;;;21.80
12918;BMP180;6526;54.312;13.092;2023-08-17T05:11:56;102665.00;;;21.90
12918;BMP180;6526;54.312;13.092;2023-08-17T05:14:23;102656.00;;;21.90
12918;BMP180;6526;54.312;13.092;2023-08-17T05:16:49;102658.00;;;21.90
12918;BMP180;6526;54.312;13.092;2023-08-17T05:19:15;102663.00;;;21.90
12918;BMP180;6526;54.312;13.092;2023-08-17T05:21:41;102661.00;;;21.90
12918;BMP180;6526;54.312;13.092;2023-08-17T05:24:07;102661.00;;;22.00
12918;BMP180;6526;54.312;13.092;2023-08-17T05:26:33;102667.00;;;22.10
12918;BMP180;6526;54.312;13.092;2023-08-17T05:28:59;102676.00;;;22.10
12918;BMP180;6526;54.312;13.092;2023-08-17T05:31:25;102663.00;;;22.20
12918;BMP180;6526;54.312;13.092;2023-08-17T05:33:52;102660.00;;;22.20
12918;BMP180;6526;54.312;13.092;2023-08-17T05:36:18;102663.00;;;22.20
12918;BMP180;6526;54.312;13.092;2023-08-17T05:38:44;102670.00;;;22.30
12918;BMP180;6526;54.312;13.092;2023-08-17T05:41:10;102666.00;;;22.50
12918;BMP180;6526;54.312;13.092;2023-08-17T05:43:36;102671.00;;;22.60
12918;BMP180;6526;54.312;13.092;2023-08-17T05:46:02;102661.00;;;22.70
12918;BMP180;6526;54.312;13.092;2023-08-17T05:48:29;102656.00;;;22.80
12918;BMP180;6526;54.312;13.092;2023-08-17T05:50:58;102658.00;;;23.00
12918;BMP180;6526;54.312;13.092;2023-08-17T05:53:24;102656.00;;;23.10
12918;BMP180;6526;54.312;13.092;2023-08-17T05:55:50;102657.00;;;23.20
12918;BMP180;6526;54.312;13.092;2023-08-17T05:58:16;102652.00;;;23.20
12918;BMP180;6526;54.312;13.092;2023-08-17T06:00:42;102644.00;;;23.30
12918;BMP180;6526;54.312;13.092;2023-08-17T06:03:08;102649.00;;;23.50
12918;BMP180;6526;54.312;13.092;2023-08-17T06:05:35;102648.00;;;23.60
12918;BMP180;6526;54.312;13.092;2023-08-17T06:08:01;102639.00;;;23.70
12918;BMP180;6526;54.312;13.092;2023-08-17T06:10:27;102643.00;;;23.80
12918;BMP180;6526;54.312;13.092;2023-08-17T06:12:54;102648.00;;;23.90
12918;BMP180;6526;54.312;13.092;2023-08-17T06:15:20;102649.00;;;23.90
12918;BMP180;6526;54.312;13.092;2023-08-17T06:17:47;102645.00;;;23.90
12918;BMP180;6526;54.312;13.092;2023-08-17T06:20:13;102650.00;;;24.10
12918;BMP180;6526;54.312;13.092;2023-08-17T06:22:40;102652.00;;;24.10
12918;BMP180;6526;54.312;13.092;2023-08-17T06:25:06;102644.00;;;24.20
12918;BMP180;6526;54.312;13.092;2023-08-17T06:27:33;102649.00;;;24.40
12918;BMP180;6526;54.312;13.092;2023-08-17T06:30:01;102649.00;;;24.50
12918;BMP180;6526;54.312;13.092;2023-08-17T06:32:31;102661.00;;;24.70
12918;BMP180;6526;54.312;13.092;2023-08-17T06:34:58;102663.00;;;24.90
12918;BMP180;6526;54.312;13.092;2023-08-17T06:37:24;102664.00;;;24.90
12918;BMP180;6526;54.312;13.092;2023-08-17T06:39:50;102671.00;;;24.90
12918;BMP180;6526;54.312;13.092;2023-08-17T06:42:16;102659.00;;;25.00
12918;BMP180;6526;54.312;13.092;2023-08-17T06:44:42;102659.00;;;25.00
12918;BMP180;6526;54.312;13.092;2023-08-17T06:47:08;102613.00;;;24.90
12918;BMP180;6526;54.312;13.092;2023-08-17T06:49:35;102668.00;;;25.10
12918;BMP180;6526;54.312;13.092;2023-08-17T06:52:01;102656.00;;;25.10
12918;BMP180;6526;54.312;13.092;2023-08-17T06:54:27;102660.00;;;25.20
12918;BMP180;6526;54.312;13.092;2023-08-17T06:56:53;102659.00;;;25.30
12918;BMP180;6526;54.312;13.092;2023-08-17T06:59:19;102658.00;;;25.50
12918;BMP180;6526;54.312;13.092;2023-08-17T07:01:45;102668.00;;;25.60
12918;BMP180;6526;54.312;13.092;2023-08-17T07:04:11;102673.00;;;25.60
12918;BMP180;6526;54.312;13.092;2023-08-17T07:06:37;102664.00;;;25.60
12918;BMP180;6526;54.312;13.092;2023-08-17T07:09:04;102658.00;;;25.70
12918;BMP180;6526;54.312;13.092;2023-08-17T07:11:31;102656.00;;;25.70
12918;BMP180;6526;54.312;13.092;2023-08-17T07:13:57;102649.00;;;25.80
12918;BMP180;6526;54.312;13.092;2023-08-17T07:16:23;102662.00;;;25.80
12918;BMP180;6526;54.312;13.092;2023-08-17T07:18:49;102666.00;;;25.90
12918;BMP180;6526;54.312;13.092;2023-08-17T07:21:15;102667.00;;;26.00
12918;BMP180;6526;54.312;13.092;2023-08-17T07:23:44;102670.00;;;26.20
12918;BMP180;6526;54.312;13.092;2023-08-17T07:26:11;102682.00;;;26.20
12918;BMP180;6526;54.312;13.092;2023-08-17T07:28:37;102679.00;;;26.30
12918;BMP180;6526;54.312;13.092;2023-08-17T07:31:03;102684.00;;;26.30
12918;BMP180;6526;54.312;13.092;2023-08-17T07:33:31;102683.00;;;26.30
12918;BMP180;6526;54.312;13.092;2023-08-17T07:35:57;102675.00;;;26.30
12918;BMP180;6526;54.312;13.092;2023-08-17T07:38:24;102676.00;;;26.30
12918;BMP180;6526;54.312;13.092;2023-08-17T07:40:50;102675.00;;;26.50
12918;BMP180;6526;54.312;13.092;2023-08-17T07:43:16;102679.00;;;26.80
12918;BMP180;6526;54.312;13.092;2023-08-17T07:45:42;102677.00;;;26.80
12918;BMP180;6526;54.312;13.092;2023-08-17T07:48:08;102675.00;;;26.90
12918;BMP180;6526;54.312;13.092;2023-08-17T07:50:34;102676.00;;;26.70
12918;BMP180;6526;54.312;13.092;2023-08-17T07:53:00;102687.00;;;26.80
12918;BMP180;6526;54.312;13.092;2023-08-17T07:55:27;102682.00;;;26.80
12918;BMP180;6526;54.312;13.092;2023-08-17T07:57:53;102693.00;;;26.50
12918;BMP180;6526;54.312;13.092;2023-08-17T08:00:19;102688.00;;;26.50
12918;BMP180;6526;54.312;13.092;2023-08-17T08:02:46;102690.00;;;26.40
12918;BMP180;6526;54.312;13.092;2023-08-17T08:05:12;102693.00;;;26.50
12918;BMP180;6526;54.312;13.092;2023-08-17T08:07:40;102692.00;;;26.40
12918;BMP180;6526;54.312;13.092;2023-08-17T08:10:07;102697.00;;;26.30
12918;BMP180;6526;54.312;13.092;2023-08-17T08:12:33;102698.00;;;26.10
12918;BMP180;6526;54.312;13.092;2023-08-17T08:14:59;102696.00;;;26.00
12918;BMP180;6526;54.312;13.092;2023-08-17T08:17:25;102690.00;;;26.00
12918;BMP180;6526;54.312;13.092;2023-08-17T08:19:51;102696.00;;;26.00
12918;BMP180;6526;54.312;13.092;2023-08-17T08:22:17;102696.00;;;26.00
12918;BMP180;6526;54.312;13.092;2023-08-17T08:24:43;102682.00;;;25.90
12918;BMP180;6526;54.312;13.092;2023-08-17T08:27:09;102694.00;;;26.00
12918;BMP180;6526;54.312;13.092;2023-08-17T08:29:35;102696.00;;;25.90
12918;BMP180;6526;54.312;13.092;2023-08-17T08:32:01;102693.00;;;25.90
12918;BMP180;6526;54.312;13.092;2023-08-17T08:34:29;102696.00;;;25.80
12918;BMP180;6526;54.312;13.092;2023-08-17T08:36:55;102702.00;;;25.70
12918;BMP180;6526;54.312;13.092;2023-08-17T08:39:21;102685.00;;;25.70
12918;BMP180;6526;54.312;13.092;2023-08-17T08:41:47;102684.00;;;25.80
12918;BMP180;6526;54.312;13.092;2023-08-17T08:44:13;102681.00;;;25.90
12918;BMP180;6526;54.312;13.092;2023-08-17T08:46:41;102684.00;;;26.00
12918;BMP180;6526;54.312;13.092;2023-08-17T08:49:11;102675.00;;;26.00
12918;BMP180;6526;54.312;13.092;2023-08-17T08:51:41;102687.00;;;26.00
12918;BMP180;6526;54.312;13.092;2023-08-17T08:54:10;102687.00;;;25.90
12918;BMP180;6526;54.312;13.092;2023-08-17T08:56:40;102689.00;;;26.00
12918;BMP180;6526;54.312;13.092;2023-08-17T08:59:08;102680.00;;;26.00
12918;BMP180;6526;54.312;13.092;2023-08-17T09:01:35;102684.00;;;26.00
12918;BMP180;6526;54.312;13.092;2023-08-17T09:04:02;102680.00;;;26.00
12918;BMP180;6526;54.312;13.092;2023-08-17T09:06:30;102678.00;;;25.90
12918;BMP180;6526;54.312;13.092;2023-08-17T09:09:02;102680.00;;;25.90
12918;BMP180;6526;54.312;13.092;2023-08-17T09:11:28;102674.00;;;25.90
12918;BMP180;6526;54.312;13.092;2023-08-17T09:13:55;102687.00;;;26.00
12918;BMP180;6526;54.312;13.092;2023-08-17T09:16:21;102672.00;;;26.00
12918;BMP180;6526;54.312;13.092;2023-08-17T09:18:48;102685.00;;;26.00
12918;BMP180;6526;54.312;13.092;2023-08-17T09:21:23;102676.00;;;26.00
12918;BMP180;6526;54.312;13.092;2023-08-17T09:23:54;102674.00;;;26.00
12918;BMP180;6526;54.312;13.092;2023-08-17T09:26:23;102676.00;;;26.00
12918;BMP180;6526;54.312;13.092;2023-08-17T09:28:50;102661.00;;;25.90
12918;BMP180;6526;54.312;13.092;2023-08-17T09:31:20;102657.00;;;25.90
12918;BMP180;6526;54.312;13.092;2023-08-17T09:33:52;102658.00;;;25.90
12918;BMP180;6526;54.312;13.092;2023-08-17T09:36:22;102660.00;;;25.90
12918;BMP180;6526;54.312;13.092;2023-08-17T09:38:49;102650.00;;;25.90
12918;BMP180;6526;54.312;13.092;2023-08-17T09:41:19;102655.00;;;26.00
12918;BMP180;6526;54.312;13.092;2023-08-17T09:43:46;102643.00;;;26.00
12918;BMP180;6526;54.312;13.092;2023-08-17T09:46:12;102659.00;;;26.00
12918;BMP180;6526;54.312;13.092;2023-08-17T09:48:38;102656.00;;;26.00
12918;BMP180;6526;54.312;13.092;2023-08-17T09:51:06;102660.00;;;26.10
12918;BMP180;6526;54.312;13.092;2023-08-17T09:53:35;102663.00;;;26.10
12918;BMP180;6526;54.312;13.092;2023-08-17T09:56:08;102655.00;;;26.10
12918;BMP180;6526;54.312;13.092;2023-08-17T09:58:38;102658.00;;;26.10
12918;BMP180;6526;54.312;13.092;2023-08-17T10:01:05;102658.00;;;26.10
12918;BMP180;6526;54.312;13.092;2023-08-17T10:03:34;102662.00;;;26.10
12918;BMP180;6526;54.312;13.092;2023-08-17T10:06:10;102669.00;;;26.00
12918;BMP180;6526;54.312;13.092;2023-08-17T10:08:43;102668.00;;;26.10
12918;BMP180;6526;54.312;13.092;2023-08-17T10:11:10;102662.00;;;26.10
12918;BMP180;6526;54.312;13.092;2023-08-17T10:13:48;102661.00;;;26.20
12918;BMP180;6526;54.312;13.092;2023-08-17T10:16:23;102669.00;;;26.20
12918;BMP180;6526;54.312;13.092;2023-08-17T10:19:09;102666.00;;;26.30
12918;BMP180;6526;54.312;13.092;2023-08-17T10:24:38;102673.00;;;26.60
12918;BMP180;6526;54.312;13.092;2023-08-17T10:27:05;102655.00;;;26.90
12918;BMP180;6526;54.312;13.092;2023-08-17T10:29:32;102666.00;;;27.00
12918;BMP180;6526;54.312;13.092;2023-08-17T10:32:01;102662.00;;;27.10
12918;BMP180;6526;54.312;13.092;2023-08-17T10:34:28;102668.00;;;27.10
12918;BMP180;6526;54.312;13.092;2023-08-17T10:36:55;102659.00;;;26.90
12918;BMP180;6526;54.312;13.092;2023-08-17T10:39:28;102667.00;;;26.70
12918;BMP180;6526;54.312;13.092;2023-08-17T10:41:56;102668.00;;;26.70
12918;BMP180;6526;54.312;13.092;2023-08-17T10:47:25;102667.00;;;27.10
12918;BMP180;6526;54.312;13.092;2023-08-17T10:50:02;102677.00;;;27.10
12918;BMP180;6526;54.312;13.092;2023-08-17T10:52:33;102671.00;;;27.30
12918;BMP180;6526;54.312;13.092;2023-08-17T10:55:07;102659.00;;;27.40
12918;BMP180;6526;54.312;13.092;2023-08-17T10:57:38;102667.00;;;27.50
12918;BMP180;6526;54.312;13.092;2023-08-17T11:00:17;102677.00;;;27.50
12918;BMP180;6526;54.312;13.092;2023-08-17T11:02:59;102663.00;;;27.60
12918;BMP180;6526;54.312;13.092;2023-08-17T11:05:44;102672.00;;;27.50
12918;BMP180;6526;54.312;13.092;2023-08-17T11:11:19;102667.00;;;27.60
12918;BMP180;6526;54.312;13.092;2023-08-17T11:13:45;102664.00;;;27.80
12918;BMP180;6526;54.312;13.092;2023-08-17T11:16:13;102656.00;;;27.70
12918;BMP180;6526;54.312;13.092;2023-08-17T11:18:39;102659.00;;;27.70
12918;BMP180;6526;54.312;13.092;2023-08-17T11:21:08;102656.00;;;27.70
12918;BMP180;6526;54.312;13.092;2023-08-17T11:23:36;102651.00;;;27.60
12918;BMP180;6526;54.312;13.092;2023-08-17T11:26:03;102650.00;;;27.50
12918;BMP180;6526;54.312;13.092;2023-08-17T11:28:33;102649.00;;;27.40
12918;BMP180;6526;54.312;13.092;2023-08-17T11:31:10;102652.00;;;27.20
12918;BMP180;6526;54.312;13.092;2023-08-17T11:33:38;102652.00;;;27.30
12918;BMP180;6526;54.312;13.092;2023-08-17T11:36:07;102646.00;;;27.50
12918;BMP180;6526;54.312;13.092;2023-08-17T11:38:35;102649.00;;;27.30
12918;BMP180;6526;54.312;13.092;2023-08-17T11:41:03;102638.00;;;27.10
12918;BMP180;6526;54.312;13.092;2023-08-17T11:43:29;102640.00;;;27.10
12918;BMP180;6526;54.312;13.092;2023-08-17T11:45:56;102635.00;;;26.80
12918;BMP180;6526;54.312;13.092;2023-08-17T11:48:24;102633.00;;;26.60
12918;BMP180;6526;54.312;13.092;2023-08-17T11:50:52;102639.00;;;26.60
12918;BMP180;6526;54.312;13.092;2023-08-17T11:53:18;102632.00;;;26.50
12918;BMP180;6526;54.312;13.092;2023-08-17T11:55:45;102645.00;;;26.50
12918;BMP180;6526;54.312;13.092;2023-08-17T11:58:11;102646.00;;;26.50
12918;BMP180;6526;54.312;13.092;2023-08-17T12:00:40;102640.00;;;26.40
12918;BMP180;6526;54.312;13.092;2023-08-17T12:03:07;102634.00;;;26.40
12918;BMP180;6526;54.312;13.092;2023-08-17T12:05:33;102644.00;;;26.40
12918;BMP180;6526;54.312;13.092;2023-08-17T12:08:00;102631.00;;;26.40
12918;BMP180;6526;54.312;13.092;2023-08-17T12:10:30;102631.00;;;26.30
12918;BMP180;6526;54.312;13.092;2023-08-17T12:13:00;102639.00;;;26.30
12918;BMP180;6526;54.312;13.092;2023-08-17T12:15:34;102642.00;;;26.10
12918;BMP180;6526;54.312;13.092;2023-08-17T12:18:03;102646.00;;;26.00
12918;BMP180;6526;54.312;13.092;2023-08-17T12:20:30;102642.00;;;26.00
12918;BMP180;6526;54.312;13.092;2023-08-17T12:22:57;102645.00;;;26.00
12918;BMP180;6526;54.312;13.092;2023-08-17T12:25:25;102652.00;;;26.00
12918;BMP180;6526;54.312;13.092;2023-08-17T12:27:51;102650.00;;;25.90
12918;BMP180;6526;54.312;13.092;2023-08-17T12:30:31;102660.00;;;25.70
12918;BMP180;6526;54.312;13.092;2023-08-17T12:32:58;102660.00;;;25.70
12918;BMP180;6526;54.312;13.092;2023-08-17T12:35:25;102660.00;;;25.80
12918;BMP180;6526;54.312;13.092;2023-08-17T12:37:55;102660.00;;;25.70
12918;BMP180;6526;54.312;13.092;2023-08-17T12:40:21;102663.00;;;25.70
12918;BMP180;6526;54.312;13.092;2023-08-17T12:42:47;102664.00;;;25.60
12918;BMP180;6526;54.312;13.092;2023-08-17T12:45:14;102667.00;;;25.60
12918;BMP180;6526;54.312;13.092;2023-08-17T12:47:41;102662.00;;;25.60
12918;BMP180;6526;54.312;13.092;2023-08-17T12:50:07;102672.00;;;25.50
12918;BMP180;6526;54.312;13.092;2023-08-17T12:52:33;102646.00;;;25.50
12918;BMP180;6526;54.312;13.092;2023-08-17T12:55:00;102645.00;;;25.40
12918;BMP180;6526;54.312;13.092;2023-08-17T12:57:26;102650.00;;;25.30
12918;BMP180;6526;54.312;13.092;2023-08-17T12:59:52;102643.00;;;25.20
12918;BMP180;6526;54.312;13.092;2023-08-17T13:02:20;102649.00;;;25.10
12918;BMP180;6526;54.312;13.092;2023-08-17T13:04:46;102644.00;;;25.10
12918;BMP180;6526;54.312;13.092;2023-08-17T13:07:12;102644.00;;;25.00
12918;BMP180;6526;54.312;13.092;2023-08-17T13:09:38;102638.00;;;24.90
12918;BMP180;6526;54.312;13.092;2023-08-17T13:12:04;102640.00;;;25.00
12918;BMP180;6526;54.312;13.092;2023-08-17T13:14:30;102645.00;;;24.90
12918;BMP180;6526;54.312;13.092;2023-08-17T13:16:56;102643.00;;;24.80
12918;BMP180;6526;54.312;13.092;2023-08-17T13:19:22;102645.00;;;24.90
12918;BMP180;6526;54.312;13.092;2023-08-17T13:21:48;102639.00;;;24.90
12918;BMP180;6526;54.312;13.092;2023-08-17T13:24:14;102643.00;;;24.90
12918;BMP180;6526;54.312;13.092;2023-08-17T13:26:40;102641.00;;;24.90
12918;BMP180;6526;54.312;13.092;2023-08-17T13:29:06;102638.00;;;24.90
12918;BMP180;6526;54.312;13.092;2023-08-17T13:31:32;102644.00;;;24.80
12918;BMP180;6526;54.312;13.092;2023-08-17T13:33:59;102638.00;;;24.90
12918;BMP180;6526;54.312;13.092;2023-08-17T13:36:25;102634.00;;;25.00
12918;BMP180;6526;54.312;13.092;2023-08-17T13:38:51;102639.00;;;25.00
12918;BMP180;6526;54.312;13.092;2023-08-17T13:41:17;102641.00;;;24.90
12918;BMP180;6526;54.312;13.092;2023-08-17T13:43:43;102638.00;;;24.90
12918;BMP180;6526;54.312;13.092;2023-08-17T13:46:09;102633.00;;;24.80
12918;BMP180;6526;54.312;13.092;2023-08-17T13:48:35;102640.00;;;24.80
12918;BMP180;6526;54.312;13.092;2023-08-17T13:51:01;102640.00;;;24.70
12918;BMP180;6526;54.312;13.092;2023-08-17T13:53:27;102642.00;;;24.70
12918;BMP180;6526;54.312;13.092;2023-08-17T13:55:53;102648.00;;;24.70
12918;BMP180;6526;54.312;13.092;2023-08-17T13:58:19;102643.00;;;24.60
12918;BMP180;6526;54.312;13.092;2023-08-17T14:00:45;102615.00;;;24.70
12918;BMP180;6526;54.312;13.092;2023-08-17T14:03:11;102654.00;;;24.70
12918;BMP180;6526;54.312;13.092;2023-08-17T14:05:37;102656.00;;;24.70
12918;BMP180;6526;54.312;13.092;2023-08-17T14:08:04;102662.00;;;24.70
12918;BMP180;6526;54.312;13.092;2023-08-17T14:10:30;102652.00;;;24.70
12918;BMP180;6526;54.312;13.092;2023-08-17T14:12:56;102645.00;;;24.60